sensor_id;sensor_type;location;lat;lon;timestamp;pressure;altitude;pressure_sealevel;temperature;humidity
72370;BME280;60343;-32.030;115.880;2023-03-15T00:01:40;101737.66;;;24.43;59.04
72370;BME280;60343;-32.030;115.880;2023-03-15T00:04:14;101729.25;;;24.61;58.47
72370;BME280;60343;-32.030;115.880;2023-03-15T00:06:49;101731.00;;;24.78;59.37
72370;BME280;60343;-32.030;115.880;2023-03-15T00:09:23;101730.41;;;25.05;57.21
72370;BME280;60343;-32.030;115.880;2023-03-15T00:11:58;101732.16;;;25.39;56.26
72370;BME280;60343;-32.030;115.880;2023-03-15T00:14:33;101734.47;;;25.47;55.75
72370;BME280;60343;-32.030;115.880;2023-03-15T00:17:13;101731.34;;;25.72;56.03
72370;BME280;60343;-32.030;115.880;2023-03-15T00:19:49;101734.00;;;25.84;55.34
72370;BME280;60343;-32.030;115.880;2023-03-15T00:22:23;101733.78;;;26.07;54.60
72370;BME280;60343;-32.030;115.880;2023-03-15T00:24:58;101730.50;;;26.05;54.49
72370;BME280;60343;-32.030;115.880;2023-03-15T00:27:32;101730.25;;;26.45;53.99
72370;BME280;60343;-32.030;115.880;2023-03-15T00:30:08;101733.53;;;26.69;53.86
72370;BME280;60343;-32.030;115.880;2023-03-15T00:32:48;101733.41;;;26.80;53.37
72370;BME280;60343;-32.030;115.880;2023-03-15T00:35:23;101723.03;;;27.09;51.74
72370;BME280;60343;-32.030;115.880;2023-03-15T00:37:57;101715.44;;;27.21;51.14
72370;BME280;60343;-32.030;115.880;2023-03-15T00:40:32;101723.69;;;27.21;51.14
72370;BME280;60343;-32.030;115.880;2023-03-15T00:43:08;101726.81;;;27.30;50.63
72370;BME280;60343;-32.030;115.880;2023-03-15T00:45:44;101725.22;;;27.39;51.34
72370;BME280;60343;-32.030;115.880;2023-03-15T00:48:24;101723.72;;;27.53;50.30
72370;BME280;60343;-32.030;115.880;2023-03-15T00:51:06;101729.34;;;27.68;50.13
72370;BME280;60343;-32.030;115.880;2023-03-15T00:53:43;101722.91;;;27.90;48.65
72370;BME280;60343;-32.030;115.880;2023-03-15T00:56:19;101722.38;;;27.98;48.67
72370;BME280;60343;-32.030;115.880;2023-03-15T00:58:57;101714.25;;;28.13;49.54
72370;BME280;60343;-32.030;115.880;2023-03-15T01:01:37;101710.25;;;28.36;47.61
72370;BME280;60343;-32.030;115.880;2023-03-15T01:04:17;101708.91;;;28.48;46.55
72370;BME280;60343;-32.030;115.880;2023-03-15T01:06:51;101707.78;;;28.44;46.44
72370;BME280;60343;-32.030;115.880;2023-03-15T01:09:26;101715.56;;;28.63;48.45
72370;BME280;60343;-32.030;115.880;2023-03-15T01:12:00;101708.03;;;27.91;49.06
72370;BME280;60343;-32.030;115.880;2023-03-15T01:14:35;101706.84;;;28.19;49.71
72370;BME280;60343;-32.030;115.880;2023-03-15T01:17:10;101714.97;;;28.50;49.16
72370;BME280;60343;-32.030;115.880;2023-03-15T01:19:50;101723.22;;;28.45;49.12
72370;BME280;60343;-32.030;115.880;2023-03-15T01:22:25;101716.09;;;28.54;48.99
72370;BME280;60343;-32.030;115.880;2023-03-15T01:24:59;101714.97;;;28.50;48.62
72370;BME280;60343;-32.030;115.880;2023-03-15T01:27:34;101717.94;;;28.34;48.73
72370;BME280;60343;-32.030;115.880;2023-03-15T01:30:09;101713.72;;;28.78;46.64
72370;BME280;60343;-32.030;115.880;2023-03-15T01:32:44;101704.13;;;28.96;46.96
72370;BME280;60343;-32.030;115.880;2023-03-15T01:35:24;101702.53;;;29.51;45.95
72370;BME280;60343;-32.030;115.880;2023-03-15T01:37:59;101717.66;;;29.78;43.93
72370;BME280;60343;-32.030;115.880;2023-03-15T01:40:33;101722.38;;;29.58;44.50
72370;BME280;60343;-32.030;115.880;2023-03-15T01:43:19;101719.91;;;29.76;44.11
72370;BME280;60343;-32.030;115.880;2023-03-15T01:46:23;101724.59;;;29.76;45.07
72370;BME280;60343;-32.030;115.880;2023-03-15T01:49:04;101725.34;;;30.22;43.99
72370;BME280;60343;-32.030;115.880;2023-03-15T01:51:47;101725.31;;;30.27;43.46
72370;BME280;60343;-32.030;115.880;2023-03-15T01:54:27;101722.31;;;30.13;44.13
72370;BME280;60343;-32.030;115.880;2023-03-15T01:57:04;101717.59;;;30.19;43.91
72370;BME280;60343;-32.030;115.880;2023-03-15T01:59:44;101726.38;;;30.36;43.09
72370;BME280;60343;-32.030;115.880;2023-03-15T02:02:22;101726.75;;;30.79;42.54
72370;BME280;60343;-32.030;115.880;2023-03-15T02:05:01;101716.59;;;31.18;42.79
72370;BME280;60343;-32.030;115.880;2023-03-15T02:07:44;101712.16;;;31.17;41.42
72370;BME280;60343;-32.030;115.880;2023-03-15T02:10:24;101719.84;;;31.25;41.20
72370;BME280;60343;-32.030;115.880;2023-03-15T02:13:02;101714.03;;;31.61;40.73
72370;BME280;60343;-32.030;115.880;2023-03-15T02:15:36;101711.03;;;31.86;39.32
72370;BME280;60343;-32.030;115.880;2023-03-15T02:18:13;101700.88;;;32.00;38.66
72370;BME280;60343;-32.030;115.880;2023-03-15T02:20:53;101696.66;;;32.08;38.29
72370;BME280;60343;-32.030;115.880;2023-03-15T02:23:37;101694.09;;;32.16;38.97
72370;BME280;60343;-32.030;115.880;2023-03-15T02:26:18;101693.31;;;32.77;38.10
72370;BME280;60343;-32.030;115.880;2023-03-15T02:29:01;101691.44;;;32.72;32.92
72370;BME280;60343;-32.030;115.880;2023-03-15T02:31:36;101679.38;;;33.19;32.52
72370;BME280;60343;-32.030;115.880;2023-03-15T02:34:10;101675.63;;;33.43;32.69
72370;BME280;60343;-32.030;115.880;2023-03-15T02:36:45;101673.00;;;33.65;29.77
72370;BME280;60343;-32.030;115.880;2023-03-15T02:39:20;101675.09;;;33.73;28.67
72370;BME280;60343;-32.030;115.880;2023-03-15T02:41:57;101672.03;;;33.88;28.42
72370;BME280;60343;-32.030;115.880;2023-03-15T02:44:38;101669.16;;;33.80;30.67
72370;BME280;60343;-32.030;115.880;2023-03-15T02:47:16;101669.03;;;34.12;28.75
72370;BME280;60343;-32.030;115.880;2023-03-15T02:49:53;101662.28;;;34.18;29.64
72370;BME280;60343;-32.030;115.880;2023-03-15T02:52:28;101661.72;;;34.16;29.57
72370;BME280;60343;-32.030;115.880;2023-03-15T02:55:02;101666.16;;;33.90;27.13
72370;BME280;60343;-32.030;115.880;2023-03-15T02:57:37;101659.25;;;33.87;29.92
72370;BME280;60343;-32.030;115.880;2023-03-15T03:00:18;101652.47;;;33.80;29.13
72370;BME280;60343;-32.030;115.880;2023-03-15T03:02:53;101649.50;;;34.03;29.08
72370;BME280;60343;-32.030;115.880;2023-03-15T03:05:28;101646.19;;;34.01;28.43
72370;BME280;60343;-32.030;115.880;2023-03-15T03:08:02;101644.41;;;34.05;28.63
72370;BME280;60343;-32.030;115.880;2023-03-15T03:10:36;101644.75;;;34.31;28.55
72370;BME280;60343;-32.030;115.880;2023-03-15T03:13:11;101643.91;;;34.44;26.79
72370;BME280;60343;-32.030;115.880;2023-03-15T03:15:51;101647.19;;;34.46;27.79
72370;BME280;60343;-32.030;115.880;2023-03-15T03:18:26;101646.94;;;34.57;28.74
72370;BME280;60343;-32.030;115.880;2023-03-15T03:21:03;101643.22;;;34.61;27.09
72370;BME280;60343;-32.030;115.880;2023-03-15T03:23:38;101640.31;;;34.66;27.08
72370;BME280;60343;-32.030;115.880;2023-03-15T03:26:14;101642.72;;;34.59;27.62
72370;BME280;60343;-32.030;115.880;2023-03-15T03:28:54;101631.97;;;34.44;27.53
72370;BME280;60343;-32.030;115.880;2023-03-15T03:31:34;101621.66;;;34.17;27.42
72370;BME280;60343;-32.030;115.880;2023-03-15T03:34:09;101622.09;;;34.11;28.78
72370;BME280;60343;-32.030;115.880;2023-03-15T03:36:44;101625.00;;;33.92;29.88
72370;BME280;60343;-32.030;115.880;2023-03-15T03:39:19;101619.84;;;33.85;30.73
72370;BME280;60343;-32.030;115.880;2023-03-15T03:41:53;101624.38;;;33.81;31.03
72370;BME280;60343;-32.030;115.880;2023-03-15T03:44:27;101624.59;;;33.85;31.63
72370;BME280;60343;-32.030;115.880;2023-03-15T03:47:08;101623.50;;;33.53;30.94
72370;BME280;60343;-32.030;115.880;2023-03-15T03:49:42;101616.94;;;33.49;32.11
72370;BME280;60343;-32.030;115.880;2023-03-15T03:52:16;101621.13;;;33.60;31.74
72370;BME280;60343;-32.030;115.880;2023-03-15T03:54:51;101612.91;;;33.55;32.50
72370;BME280;60343;-32.030;115.880;2023-03-15T03:57:25;101607.81;;;33.76;32.60
72370;BME280;60343;-32.030;115.880;2023-03-15T04:00:00;101613.25;;;33.81;31.87
72370;BME280;60343;-32.030;115.880;2023-03-15T04:02:41;101605.94;;;33.85;32.03
72370;BME280;60343;-32.030;115.880;2023-03-15T04:05:16;101605.22;;;34.21;32.32
72370;BME280;60343;-32.030;115.880;2023-03-15T04:07:50;101606.50;;;34.51;33.36
72370;BME280;60343;-32.030;115.880;2023-03-15T04:10:25;101594.81;;;34.62;34.92
72370;BME280;60343;-32.030;115.880;2023-03-15T04:13:01;101588.91;;;35.00;34.90
72370;BME280;60343;-32.030;115.880;2023-03-15T04:15:36;101587.00;;;34.86;35.73
72370;BME280;60343;-32.030;115.880;2023-03-15T04:18:16;101592.94;;;35.16;34.90
72370;BME280;60343;-32.030;115.880;2023-03-15T04:20:51;101582.19;;;35.01;34.29
72370;BME280;60343;-32.030;115.880;2023-03-15T04:23:25;101575.88;;;34.86;35.40
72370;BME280;60343;-32.030;115.880;2023-03-15T04:26:01;101577.41;;;34.70;34.82
72370;BME280;60343;-32.030;115.880;2023-03-15T04:28:35;101571.84;;;34.34;35.30
72370;BME280;60343;-32.030;115.880;2023-03-15T04:31:11;101575.66;;;34.11;36.19
72370;BME280;60343;-32.030;115.880;2023-03-15T04:33:51;101578.25;;;33.80;36.71
72370;BME280;60343;-32.030;115.880;2023-03-15T04:36:26;101582.25;;;33.47;36.95
72370;BME280;60343;-32.030;115.880;2023-03-15T04:39:00;101583.91;;;33.48;37.41
72370;BME280;60343;-32.030;115.880;2023-03-15T04:41:37;101580.72;;;33.54;36.19
72370;BME280;60343;-32.030;115.880;2023-03-15T04:44:12;101572.91;;;33.10;37.42
72370;BME280;60343;-32.030;115.880;2023-03-15T04:46:47;101578.81;;;33.23;36.88
72370;BME280;60343;-32.030;115.880;2023-03-15T04:49:27;101576.28;;;33.40;36.40
72370;BME280;60343;-32.030;115.880;2023-03-15T04:52:02;101579.97;;;33.35;36.13
72370;BME280;60343;-32.030;115.880;2023-03-15T04:54:36;101575.53;;;33.20;35.52
72370;BME280;60343;-32.030;115.880;2023-03-15T04:57:11;101569.16;;;33.20;35.60
72370;BME280;60343;-32.030;115.880;2023-03-15T04:59:45;101570.28;;;33.19;35.84
72370;BME280;60343;-32.030;115.880;2023-03-15T05:02:20;101565.81;;;33.04;35.13
72370;BME280;60343;-32.030;115.880;2023-03-15T05:05:00;101552.44;;;33.06;35.81
72370;BME280;60343;-32.030;115.880;2023-03-15T05:07:35;101558.69;;;33.31;35.25
72370;BME280;60343;-32.030;115.880;2023-03-15T05:10:11;101560.88;;;33.15;34.70
72370;BME280;60343;-32.030;115.880;2023-03-15T05:12:45;101561.69;;;33.02;35.32
72370;BME280;60343;-32.030;115.880;2023-03-15T05:15:24;101564.56;;;33.10;36.27
72370;BME280;60343;-32.030;115.880;2023-03-15T05:17:59;101566.31;;;33.39;35.07
72370;BME280;60343;-32.030;115.880;2023-03-15T05:20:39;101562.16;;;33.23;35.22
72370;BME280;60343;-32.030;115.880;2023-03-15T05:23:14;101560.31;;;33.45;34.81
72370;BME280;60343;-32.030;115.880;2023-03-15T05:25:52;101557.56;;;33.32;34.83
72370;BME280;60343;-32.030;115.880;2023-03-15T05:28:27;101564.03;;;33.41;35.39
72370;BME280;60343;-32.030;115.880;2023-03-15T05:31:02;101564.47;;;33.15;36.41
72370;BME280;60343;-32.030;115.880;2023-03-15T05:33:37;101565.75;;;33.69;36.55
72370;BME280;60343;-32.030;115.880;2023-03-15T05:36:18;101564.25;;;33.85;35.88
72370;BME280;60343;-32.030;115.880;2023-03-15T05:38:53;101561.19;;;33.73;35.82
72370;BME280;60343;-32.030;115.880;2023-03-15T05:41:29;101556.97;;;33.89;35.20
72370;BME280;60343;-32.030;115.880;2023-03-15T05:44:04;101558.50;;;33.95;35.79
72370;BME280;60343;-32.030;115.880;2023-03-15T05:46:38;101563.44;;;33.98;34.61
72370;BME280;60343;-32.030;115.880;2023-03-15T05:49:15;101556.97;;;33.89;35.08
72370;BME280;60343;-32.030;115.880;2023-03-15T05:51:56;101550.38;;;33.99;34.19
72370;BME280;60343;-32.030;115.880;2023-03-15T05:54:31;101552.69;;;34.33;33.87
72370;BME280;60343;-32.030;115.880;2023-03-15T05:57:05;101559.59;;;34.22;33.88
72370;BME280;60343;-32.030;115.880;2023-03-15T05:59:41;101553.84;;;34.18;33.73
72370;BME280;60343;-32.030;115.880;2023-03-15T06:02:22;101543.22;;;34.34;33.46
72370;BME280;60343;-32.030;115.880;2023-03-15T06:04:57;101555.00;;;34.03;33.54
72370;BME280;60343;-32.030;115.880;2023-03-15T06:07:37;101551.09;;;33.91;34.11
72370;BME280;60343;-32.030;115.880;2023-03-15T06:10:12;101553.16;;;33.85;34.12
72370;BME280;60343;-32.030;115.880;2023-03-15T06:12:47;101550.56;;;34.02;33.69
72370;BME280;60343;-32.030;115.880;2023-03-15T06:15:24;101552.28;;;34.12;34.72
72370;BME280;60343;-32.030;115.880;2023-03-15T06:17:59;101550.44;;;34.08;34.31
72370;BME280;60343;-32.030;115.880;2023-03-15T06:20:33;101551.78;;;34.24;34.76
72370;BME280;60343;-32.030;115.880;2023-03-15T06:23:13;101550.44;;;34.21;33.28
72370;BME280;60343;-32.030;115.880;2023-03-15T06:25:48;101546.72;;;34.26;33.14
72370;BME280;60343;-32.030;115.880;2023-03-15T06:28:23;101549.22;;;34.50;33.20
72370;BME280;60343;-32.030;115.880;2023-03-15T06:30:58;101555.16;;;34.57;32.88
72370;BME280;60343;-32.030;115.880;2023-03-15T06:33:37;101546.94;;;34.29;32.41
72370;BME280;60343;-32.030;115.880;2023-03-15T06:36:12;101551.91;;;34.41;33.18
72370;BME280;60343;-32.030;115.880;2023-03-15T06:38:53;101546.09;;;34.29;32.17
72370;BME280;60343;-32.030;115.880;2023-03-15T06:41:29;101552.72;;;34.55;32.30
72370;BME280;60343;-32.030;115.880;2023-03-15T06:44:05;101552.44;;;34.43;32.58
72370;BME280;60343;-32.030;115.880;2023-03-15T06:46:39;101551.56;;;34.56;30.57
72370;BME280;60343;-32.030;115.880;2023-03-15T06:49:14;101555.88;;;34.40;31.15
72370;BME280;60343;-32.030;115.880;2023-03-15T06:51:48;101548.47;;;34.22;31.61
72370;BME280;60343;-32.030;115.880;2023-03-15T06:54:33;101550.53;;;34.30;32.16
72370;BME280;60343;-32.030;115.880;2023-03-15T06:57:08;101549.63;;;34.21;32.09
72370;BME280;60343;-32.030;115.880;2023-03-15T06:59:42;101557.34;;;34.46;32.03
72370;BME280;60343;-32.030;115.880;2023-03-15T07:02:18;101550.41;;;34.57;30.94
72370;BME280;60343;-32.030;115.880;2023-03-15T07:04:53;101555.53;;;34.41;32.73
72370;BME280;60343;-32.030;115.880;2023-03-15T07:07:30;101545.59;;;34.27;32.14
72370;BME280;60343;-32.030;115.880;2023-03-15T07:10:11;101542.31;;;34.25;31.98
72370;BME280;60343;-32.030;115.880;2023-03-15T07:12:46;101544.97;;;34.52;31.62
72370;BME280;60343;-32.030;115.880;2023-03-15T07:15:20;101537.47;;;34.30;32.39
72370;BME280;60343;-32.030;115.880;2023-03-15T07:17:57;101545.09;;;34.47;32.56
72370;BME280;60343;-32.030;115.880;2023-03-15T07:20:32;101535.47;;;34.31;33.41
72370;BME280;60343;-32.030;115.880;2023-03-15T07:23:06;101523.47;;;34.22;33.65
72370;BME280;60343;-32.030;115.880;2023-03-15T07:25:47;101524.13;;;34.05;35.22
72370;BME280;60343;-32.030;115.880;2023-03-15T07:28:27;101535.94;;;34.24;33.10
72370;BME280;60343;-32.030;115.880;2023-03-15T07:31:02;101532.34;;;33.96;33.63
72370;BME280;60343;-32.030;115.880;2023-03-15T07:33:37;101534.84;;;33.84;33.89
72370;BME280;60343;-32.030;115.880;2023-03-15T07:36:11;101536.59;;;32.93;35.48
72370;BME280;60343;-32.030;115.880;2023-03-15T07:38:46;101531.28;;;32.64;36.32
72370;BME280;60343;-32.030;115.880;2023-03-15T07:41:27;101537.28;;;32.10;38.61
72370;BME280;60343;-32.030;115.880;2023-03-15T07:44:01;101532.72;;;31.82;38.55
72370;BME280;60343;-32.030;115.880;2023-03-15T07:46:38;101539.63;;;31.56;38.66
72370;BME280;60343;-32.030;115.880;2023-03-15T07:49:13;101535.66;;;31.14;39.22
72370;BME280;60343;-32.030;115.880;2023-03-15T07:51:48;101533.50;;;31.11;39.48
72370;BME280;60343;-32.030;115.880;2023-03-15T07:54:23;101529.63;;;31.12;39.48
72370;BME280;60343;-32.030;115.880;2023-03-15T07:57:07;101535.25;;;30.97;39.51
72370;BME280;60343;-32.030;115.880;2023-03-15T07:59:42;101530.69;;;31.16;38.37
72370;BME280;60343;-32.030;115.880;2023-03-15T08:02:18;101535.81;;;30.94;38.77
72370;BME280;60343;-32.030;115.880;2023-03-15T08:04:53;101535.78;;;30.99;39.57
72370;BME280;60343;-32.030;115.880;2023-03-15T08:07:28;101538.16;;;30.82;38.97
72370;BME280;60343;-32.030;115.880;2023-03-15T08:10:03;101537.28;;;30.86;39.56
72370;BME280;60343;-32.030;115.880;2023-03-15T08:12:46;101545.00;;;30.55;40.54
72370;BME280;60343;-32.030;115.880;2023-03-15T08:15:21;101543.47;;;30.34;41.57
72370;BME280;60343;-32.030;115.880;2023-03-15T08:17:55;101544.19;;;30.55;40.54
72370;BME280;60343;-32.030;115.880;2023-03-15T08:20:32;101542.75;;;30.62;39.92
72370;BME280;60343;-32.030;115.880;2023-03-15T08:23:07;101538.84;;;30.63;39.82
72370;BME280;60343;-32.030;115.880;2023-03-15T08:25:43;101540.69;;;30.34;40.70
72370;BME280;60343;-32.030;115.880;2023-03-15T08:28:23;101541.78;;;30.38;40.26
72370;BME280;60343;-32.030;115.880;2023-03-15T08:30:57;101548.16;;;30.34;40.27
72370;BME280;60343;-32.030;115.880;2023-03-15T08:33:32;101548.22;;;30.23;40.97
72370;BME280;60343;-32.030;115.880;2023-03-15T08:36:06;101548.00;;;30.15;41.19
72370;BME280;60343;-32.030;115.880;2023-03-15T08:38:41;101551.63;;;30.10;41.46
72370;BME280;60343;-32.030;115.880;2023-03-15T08:41:16;101556.91;;;30.07;40.73
72370;BME280;60343;-32.030;115.880;2023-03-15T08:43:56;101561.41;;;29.82;41.60
72370;BME280;60343;-32.030;115.880;2023-03-15T08:46:31;101565.28;;;29.76;42.11
72370;BME280;60343;-32.030;115.880;2023-03-15T08:49:05;101569.19;;;29.70;42.02
72370;BME280;60343;-32.030;115.880;2023-03-15T08:51:40;101573.09;;;29.49;43.01
72370;BME280;60343;-32.030;115.880;2023-03-15T08:54:17;101572.28;;;29.43;43.67
72370;BME280;60343;-32.030;115.880;2023-03-15T08:56:52;101572.00;;;29.50;43.16
72370;BME280;60343;-32.030;115.880;2023-03-15T08:59:32;101574.78;;;29.35;43.02
72370;BME280;60343;-32.030;115.880;2023-03-15T09:02:10;101583.31;;;29.28;43.90
72370;BME280;60343;-32.030;115.880;2023-03-15T09:04:44;101585.56;;;29.11;44.65
72370;BME280;60343;-32.030;115.880;2023-03-15T09:07:19;101588.03;;;28.92;45.50
72370;BME280;60343;-32.030;115.880;2023-03-15T09:09:54;101587.22;;;28.82;45.90
72370;BME280;60343;-32.030;115.880;2023-03-15T09:12:29;101593.00;;;28.80;46.51
72370;BME280;60343;-32.030;115.880;2023-03-15T09:15:10;101586.63;;;28.70;46.41
72370;BME280;60343;-32.030;115.880;2023-03-15T09:17:47;101590.19;;;28.70;47.47
72370;BME280;60343;-32.030;115.880;2023-03-15T09:20:22;101602.56;;;28.63;47.34
72370;BME280;60343;-32.030;115.880;2023-03-15T09:22:57;101602.22;;;28.29;47.86
72370;BME280;60343;-32.030;115.880;2023-03-15T09:25:32;101603.78;;;28.09;49.17
72370;BME280;60343;-32.030;115.880;2023-03-15T09:28:07;101600.28;;;28.19;49.70
72370;BME280;60343;-32.030;115.880;2023-03-15T09:30:48;101607.91;;;28.07;49.24
72370;BME280;60343;-32.030;115.880;2023-03-15T09:33:25;101612.00;;;27.99;49.09
72370;BME280;60343;-32.030;115.880;2023-03-15T09:36:00;101599.91;;;28.00;48.62
72370;BME280;60343;-32.030;115.880;2023-03-15T09:38:34;101605.88;;;27.87;49.37
72370;BME280;60343;-32.030;115.880;2023-03-15T09:41:18;101603.13;;;27.87;50.23
72370;BME280;60343;-32.030;115.880;2023-03-15T09:44:00;101603.06;;;27.72;49.89
72370;BME280;60343;-32.030;115.880;2023-03-15T09:46:47;101607.38;;;27.58;51.09
72370;BME280;60343;-32.030;115.880;2023-03-15T09:49:32;101610.56;;;27.40;52.44
72370;BME280;60343;-32.030;115.880;2023-03-15T09:52:25;101610.81;;;27.38;53.14
72370;BME280;60343;-32.030;115.880;2023-03-15T09:55:03;101619.22;;;27.26;54.83
72370;BME280;60343;-32.030;115.880;2023-03-15T09:57:47;101620.03;;;27.22;55.41
72370;BME280;60343;-32.030;115.880;2023-03-15T10:00:29;101623.63;;;26.91;56.68
72370;BME280;60343;-32.030;115.880;2023-03-15T10:03:18;101623.34;;;26.92;56.76
72370;BME280;60343;-32.030;115.880;2023-03-15T10:06:06;101624.63;;;26.84;57.75
72370;BME280;60343;-32.030;115.880;2023-03-15T10:08:47;101613.03;;;26.51;59.06
72370;BME280;60343;-32.030;115.880;2023-03-15T10:11:31;101616.06;;;26.27;60.28
72370;BME280;60343;-32.030;115.880;2023-03-15T10:14:19;101621.72;;;26.21;61.34
72370;BME280;60343;-32.030;115.880;2023-03-15T10:16:57;101622.06;;;26.24;59.97
72370;BME280;60343;-32.030;115.880;2023-03-15T10:19:42;101617.44;;;26.08;60.01
72370;BME280;60343;-32.030;115.880;2023-03-15T10:22:27;101617.78;;;25.90;61.18
72370;BME280;60343;-32.030;115.880;2023-03-15T10:25:08;101621.72;;;25.99;61.19
72370;BME280;60343;-32.030;115.880;2023-03-15T10:27:48;101624.00;;;25.63;62.62
72370;BME280;60343;-32.030;115.880;2023-03-15T10:30:25;101630.81;;;25.44;63.74
72370;BME280;60343;-32.030;115.880;2023-03-15T10:33:02;101636.59;;;25.48;63.59
72370;BME280;60343;-32.030;115.880;2023-03-15T10:35:42;101631.81;;;25.38;64.15
72370;BME280;60343;-32.030;115.880;2023-03-15T10:38:17;101630.47;;;25.24;64.77
72370;BME280;60343;-32.030;115.880;2023-03-15T10:40:54;101638.13;;;25.39;64.35
72370;BME280;60343;-32.030;115.880;2023-03-15T10:43:31;101637.28;;;25.21;64.82
72370;BME280;60343;-32.030;115.880;2023-03-15T10:46:07;101632.03;;;25.20;64.41
72370;BME280;60343;-32.030;115.880;2023-03-15T10:48:55;101638.38;;;25.04;65.22
72370;BME280;60343;-32.030;115.880;2023-03-15T10:51:38;101642.75;;;25.05;65.69
72370;BME280;60343;-32.030;115.880;2023-03-15T10:54:16;101650.25;;;25.09;65.47
72370;BME280;60343;-32.030;115.880;2023-03-15T10:57:00;101642.59;;;24.95;65.53
72370;BME280;60343;-32.030;115.880;2023-03-15T10:59:35;101651.41;;;24.85;65.88
72370;BME280;60343;-32.030;115.880;2023-03-15T11:02:21;101665.94;;;24.86;65.49
72370;BME280;60343;-32.030;115.880;2023-03-15T11:05:02;101659.63;;;24.85;65.47
72370;BME280;60343;-32.030;115.880;2023-03-15T11:07:53;101671.41;;;24.69;65.96
72370;BME280;60343;-32.030;115.880;2023-03-15T11:10:32;101664.88;;;24.58;66.34
72370;BME280;60343;-32.030;115.880;2023-03-15T11:13:16;101665.97;;;24.57;66.26
72370;BME280;60343;-32.030;115.880;2023-03-15T11:15:54;101665.97;;;24.57;66.52
72370;BME280;60343;-32.030;115.880;2023-03-15T11:18:33;101674.41;;;24.56;66.58
72370;BME280;60343;-32.030;115.880;2023-03-15T11:21:07;101681.78;;;24.55;66.81
72370;BME280;60343;-32.030;115.880;2023-03-15T11:23:49;101685.16;;;24.46;67.29
72370;BME280;60343;-32.030;115.880;2023-03-15T11:26:25;101690.19;;;24.37;67.73
72370;BME280;60343;-32.030;115.880;2023-03-15T11:29:03;101683.31;;;24.23;68.11
72370;BME280;60343;-32.030;115.880;2023-03-15T11:31:37;101688.06;;;24.16;68.59
72370;BME280;60343;-32.030;115.880;2023-03-15T11:34:14;101691.28;;;24.13;68.69
72370;BME280;60343;-32.030;115.880;2023-03-15T11:36:59;101698.19;;;24.04;68.92
72370;BME280;60343;-32.030;115.880;2023-03-15T11:39:43;101693.22;;;23.89;69.37
72370;BME280;60343;-32.030;115.880;2023-03-15T11:42:22;101695.34;;;23.87;69.91
72370;BME280;60343;-32.030;115.880;2023-03-15T11:45:01;101700.81;;;23.75;70.22
72370;BME280;60343;-32.030;115.880;2023-03-15T11:47:42;101697.38;;;23.68;70.57
72370;BME280;60343;-32.030;115.880;2023-03-15T11:50:19;101706.41;;;23.80;70.39
72370;BME280;60343;-32.030;115.880;2023-03-15T11:52:53;101706.06;;;23.77;70.67
72370;BME280;60343;-32.030;115.880;2023-03-15T11:55:37;101703.31;;;23.65;71.16
72370;BME280;60343;-32.030;115.880;2023-03-15T11:58:27;101712.22;;;23.61;71.35
72370;BME280;60343;-32.030;115.880;2023-03-15T12:01:02;101716.16;;;23.53;71.76
72370;BME280;60343;-32.030;115.880;2023-03-15T12:03:39;101720.03;;;23.45;71.71
72370;BME280;60343;-32.030;115.880;2023-03-15T12:06:36;101721.78;;;23.40;72.11
72370;BME280;60343;-32.030;115.880;2023-03-15T12:12:42;101719.81;;;23.47;71.73
72370;BME280;60343;-32.030;115.880;2023-03-15T12:15:41;101730.69;;;23.35;71.85
72370;BME280;60343;-32.030;115.880;2023-03-15T12:18:23;101738.56;;;23.43;71.64
72370;BME280;60343;-32.030;115.880;2023-03-15T12:21:08;101740.78;;;23.23;72.68
72370;BME280;60343;-32.030;115.880;2023-03-15T12:23:47;101741.53;;;23.42;72.52
72370;BME280;60343;-32.030;115.880;2023-03-15T12:26:37;101745.41;;;23.34;72.74
72370;BME280;60343;-32.030;115.880;2023-03-15T12:29:22;101750.88;;;23.34;73.10
72370;BME280;60343;-32.030;115.880;2023-03-15T12:32:06;101758.22;;;23.34;73.40
72370;BME280;60343;-32.030;115.880;2023-03-15T12:34:47;101753.13;;;23.26;73.98
72370;BME280;60343;-32.030;115.880;2023-03-15T12:37:27;101763.78;;;23.16;74.51
72370;BME280;60343;-32.030;115.880;2023-03-15T12:40:35;101760.59;;;23.30;74.43
72370;BME280;60343;-32.030;115.880;2023-03-15T12:43:12;101762.16;;;23.26;74.80
72370;BME280;60343;-32.030;115.880;2023-03-15T12:45:52;101765.72;;;23.27;74.99
72370;BME280;60343;-32.030;115.880;2023-03-15T12:48:30;101763.63;;;23.10;75.49
72370;BME280;60343;-32.030;115.880;2023-03-15T12:51:04;101764.66;;;23.28;75.20
72370;BME280;60343;-32.030;115.880;2023-03-15T12:53:50;101763.78;;;23.16;75.91
72370;BME280;60343;-32.030;115.880;2023-03-15T12:56:44;101765.22;;;23.18;75.97
72370;BME280;60343;-32.030;115.880;2023-03-15T12:59:29;101770.41;;;23.08;76.55
72370;BME280;60343;-32.030;115.880;2023-03-15T13:02:25;101769.44;;;23.02;77.09
72370;BME280;60343;-32.030;115.880;2023-03-15T13:05:12;101770.44;;;22.90;77.59
72370;BME280;60343;-32.030;115.880;2023-03-15T13:08:14;101772.88;;;22.80;78.10
72370;BME280;60343;-32.030;115.880;2023-03-15T13:11:17;101780.84;;;22.63;78.60
72370;BME280;60343;-32.030;115.880;2023-03-15T13:14:22;101774.53;;;22.62;78.82
72370;BME280;60343;-32.030;115.880;2023-03-15T13:17:04;101774.28;;;22.64;79.06
72370;BME280;60343;-32.030;115.880;2023-03-15T13:19:53;101782.66;;;22.51;79.56